createdAt,value
2019-05-17T00:00:18.050Z,99.90
2019-05-17T00:02:46.755Z,99.90
2019-05-17T00:05:17.511Z,99.90
2019-05-17T00:07:47.550Z,99.90
2019-05-17T00:10:17.359Z,99.90
2019-05-17T00:12:47.156Z,99.90
2019-05-17T00:15:17.281Z,99.90
2019-05-17T00:17:46.892Z,99.90
2019-05-17T00:20:17.411Z,99.90
2019-05-17T00:22:47.201Z,99.90
2019-05-17T00:25:17.316Z,99.90
2019-05-17T00:27:47.460Z,99.90
2019-05-17T00:30:17.668Z,99.90
2019-05-17T00:32:47.735Z,99.90
2019-05-17T00:35:17.893Z,99.90
2019-05-17T00:37:47.076Z,99.90
2019-05-17T00:40:16.695Z,99.90
2019-05-17T00:42:46.700Z,99.90
2019-05-17T00:45:17.626Z,99.90
2019-05-17T00:47:46.856Z,99.90
2019-05-17T00:50:17.088Z,99.90
2019-05-17T00:52:47.567Z,99.90
2019-05-17T00:55:17.566Z,99.90
2019-05-17T00:57:47.506Z,99.90
2019-05-17T01:00:17.504Z,99.90
2019-05-17T01:02:46.841Z,99.90
2019-05-17T01:05:17.090Z,99.90
2019-05-17T01:07:46.961Z,99.90
2019-05-17T01:10:16.973Z,99.90
2019-05-17T01:12:48.078Z,99.90
2019-05-17T01:15:16.848Z,99.90
2019-05-17T01:17:47.322Z,99.90
2019-05-17T01:20:17.405Z,99.90
2019-05-17T01:22:47.375Z,99.90
2019-05-17T01:25:17.193Z,99.90
2019-05-17T01:27:47.467Z,99.90
2019-05-17T01:30:17.486Z,99.90
2019-05-17T01:32:46.589Z,99.90
2019-05-17T01:35:16.866Z,99.90
2019-05-17T01:37:47.483Z,99.90
2019-05-17T01:40:17.654Z,99.90
2019-05-17T01:42:46.788Z,99.90
2019-05-17T01:45:16.791Z,99.90
2019-05-17T01:47:47.501Z,99.90
2019-05-17T01:50:17.470Z,99.90
2019-05-17T01:52:46.308Z,99.90
2019-05-17T01:55:17.134Z,99.90
2019-05-17T01:57:47.673Z,99.90
2019-05-17T02:00:17.565Z,99.90
2019-05-17T02:02:48.478Z,99.90
2019-05-17T02:05:17.487Z,99.90
2019-05-17T02:07:46.730Z,99.90
2019-05-17T02:10:16.751Z,99.90
2019-05-17T02:12:48.683Z,99.90
2019-05-17T02:15:17.034Z,99.90
2019-05-17T02:17:46.796Z,99.90
2019-05-17T02:20:19.255Z,99.90
2019-05-17T02:22:47.814Z,99.90
2019-05-17T02:25:17.437Z,99.90
2019-05-17T02:27:46.381Z,99.90
2019-05-17T02:30:15.585Z,99.90
2019-05-17T02:32:45.399Z,99.90
2019-05-17T02:35:15.248Z,99.90
2019-05-17T02:37:44.190Z,99.90
2019-05-17T02:40:14.856Z,99.90
2019-05-17T02:42:44.159Z,99.90
2019-05-17T02:45:13.913Z,99.90
2019-05-17T02:47:43.863Z,99.90
2019-05-17T02:50:13.693Z,99.90
2019-05-17T02:52:43.571Z,99.90
2019-05-17T02:55:13.449Z,99.90
2019-05-17T02:57:43.530Z,99.90
2019-05-17T03:00:13.598Z,99.90
2019-05-17T03:02:43.476Z,99.90
2019-05-17T03:05:13.751Z,99.90
2019-05-17T03:07:44.088Z,99.90
2019-05-17T03:10:24.164Z,99.90
2019-05-17T03:12:44.891Z,99.90
2019-05-17T03:15:33.419Z,99.90
2019-05-17T03:18:03.810Z,99.90
2019-05-17T03:20:33.004Z,99.90
2019-05-17T03:23:03.893Z,99.90
2019-05-17T03:25:33.507Z,99.90
2019-05-17T03:28:03.309Z,99.90
2019-05-17T03:30:36.666Z,99.90
2019-05-17T03:33:07.125Z,99.90
2019-05-17T03:35:37.300Z,99.90
2019-05-17T03:38:05.254Z,99.90
2019-05-17T03:41:01.377Z,99.90
2019-05-17T03:43:04.329Z,99.90
2019-05-17T03:45:33.866Z,99.90
2019-05-17T03:48:04.727Z,99.90
2019-05-17T03:50:33.906Z,99.90
2019-05-17T03:53:02.901Z,99.90
2019-05-17T03:55:33.176Z,99.90
2019-05-17T03:58:03.063Z,99.90
2019-05-17T04:00:35.255Z,99.90
2019-05-17T04:03:03.143Z,99.90
2019-05-17T04:05:33.430Z,99.90
2019-05-17T04:08:03.748Z,99.90
2019-05-17T04:10:33.662Z,99.90
2019-05-17T04:13:04.323Z,99.90
2019-05-17T04:15:33.216Z,99.90
2019-05-17T04:18:04.348Z,99.90
2019-05-17T04:20:33.450Z,99.90
2019-05-17T04:23:03.678Z,99.90
2019-05-17T04:25:33.404Z,99.90
2019-05-17T04:28:02.915Z,99.90
2019-05-17T04:30:33.047Z,99.90
2019-05-17T04:33:03.481Z,99.90
2019-05-17T04:35:32.884Z,99.90
2019-05-17T04:38:03.998Z,99.90
2019-05-17T04:40:34.023Z,99.90
2019-05-17T04:43:03.504Z,99.90
2019-05-17T04:45:33.673Z,99.90
2019-05-17T04:48:04.084Z,99.90
2019-05-17T04:50:34.004Z,99.90
2019-05-17T04:53:03.167Z,99.90
2019-05-17T04:55:34.334Z,99.90
2019-05-17T04:58:03.942Z,99.90
2019-05-17T05:00:34.294Z,99.90
2019-05-17T05:03:04.559Z,99.90
2019-05-17T05:05:33.567Z,99.90
2019-05-17T05:08:03.312Z,99.90
2019-05-17T05:10:33.855Z,99.90
2019-05-17T05:13:03.281Z,99.90
2019-05-17T05:15:44.200Z,99.90
2019-05-17T05:18:13.592Z,99.90
2019-05-17T05:20:43.479Z,99.90
2019-05-17T05:23:13.245Z,99.90
2019-05-17T05:25:43.031Z,99.90
2019-05-17T05:28:12.065Z,99.90
2019-05-17T05:30:42.285Z,99.90
2019-05-17T05:33:12.779Z,99.90
2019-05-17T05:35:42.460Z,99.90
2019-05-17T05:38:12.961Z,99.90
2019-05-17T05:40:42.816Z,99.90
2019-05-17T05:43:12.106Z,99.90
2019-05-17T05:45:41.769Z,99.90
2019-05-17T05:48:12.900Z,99.90
2019-05-17T05:50:43.156Z,99.90
2019-05-17T05:53:12.855Z,99.90
2019-05-17T05:55:43.113Z,99.90
2019-05-17T05:58:12.512Z,99.90
2019-05-17T06:00:42.802Z,99.90
2019-05-17T06:03:12.241Z,99.90
2019-05-17T06:05:42.213Z,99.90
2019-05-17T06:08:12.195Z,99.90
2019-05-17T06:10:42.718Z,99.90
2019-05-17T06:13:13.090Z,99.90
2019-05-17T06:15:43.030Z,99.90
2019-05-17T06:18:12.430Z,99.90
2019-05-17T06:20:41.973Z,99.90
2019-05-17T06:23:12.389Z,99.90
2019-05-17T06:25:43.642Z,99.90
2019-05-17T06:28:11.758Z,99.90
2019-05-17T06:30:42.727Z,99.90
2019-05-17T06:33:11.903Z,99.90
2019-05-17T06:35:42.333Z,99.90
2019-05-17T06:38:12.017Z,99.90
2019-05-17T06:40:42.092Z,99.90
2019-05-17T06:43:12.923Z,99.90
2019-05-17T06:45:42.191Z,99.90
2019-05-17T06:48:11.752Z,99.90
2019-05-17T06:50:42.849Z,99.90
2019-05-17T06:53:12.357Z,99.90
2019-05-17T06:55:42.381Z,99.90
2019-05-17T06:58:12.245Z,99.90
2019-05-17T07:00:40.896Z,99.90
2019-05-17T07:03:09.713Z,99.90
2019-05-17T07:05:43.770Z,99.90
2019-05-17T07:08:12.381Z,99.90
2019-05-17T07:10:41.031Z,99.90
2019-05-17T07:13:10.571Z,99.90
2019-05-17T07:15:47.394Z,99.90
2019-05-17T07:18:10.464Z,99.90
2019-05-17T07:20:39.827Z,99.90
2019-05-17T07:23:10.755Z,99.80
2019-05-17T07:25:39.791Z,99.40
2019-05-17T07:28:10.022Z,99.40
2019-05-17T07:30:39.938Z,98.60
2019-05-17T07:33:10.196Z,98.60
2019-05-17T07:35:39.724Z,98.50
2019-05-17T07:38:10.573Z,98.50
2019-05-17T07:40:39.889Z,98.30
2019-05-17T07:43:13.778Z,98.20
2019-05-17T07:45:40.514Z,97.80
2019-05-17T07:48:09.938Z,97.60
2019-05-17T07:50:39.931Z,97.70
2019-05-17T07:53:10.331Z,97.10
2019-05-17T07:55:39.908Z,97.40
2019-05-17T07:58:09.927Z,97.10
2019-05-17T08:00:40.256Z,97.00
2019-05-17T08:03:12.904Z,97.00
2019-05-17T08:05:40.357Z,96.30
2019-05-17T08:08:09.900Z,96.50
2019-05-17T08:10:40.948Z,96.40
2019-05-17T08:13:25.101Z,96.40
2019-05-17T08:15:39.716Z,95.90
2019-05-17T08:18:10.810Z,95.90
2019-05-17T08:20:40.040Z,96.10
2019-05-17T08:23:10.652Z,96.00
2019-05-17T08:25:51.990Z,95.70
2019-05-17T08:28:11.027Z,95.10
2019-05-17T08:30:40.866Z,94.70
2019-05-17T08:33:10.946Z,95.00
2019-05-17T08:35:40.141Z,94.90
2019-05-17T08:38:10.304Z,94.40
2019-05-17T08:40:40.354Z,94.30
2019-05-17T08:43:10.130Z,94.90
2019-05-17T08:45:40.814Z,94.80
2019-05-17T08:48:09.661Z,94.50
2019-05-17T08:50:40.254Z,94.60
2019-05-17T08:53:10.723Z,93.80
2019-05-17T08:55:40.809Z,94.60
2019-05-17T08:58:29.802Z,94.40
2019-05-17T09:01:00.291Z,94.40
2019-05-17T09:03:30.328Z,94.50
2019-05-17T09:06:02.023Z,93.90
2019-05-17T09:08:29.880Z,93.80
2019-05-17T09:11:00.309Z,93.30
2019-05-17T09:13:29.817Z,93.50
2019-05-17T09:16:00.393Z,94.10
2019-05-17T09:18:30.221Z,93.70
2019-05-17T09:21:00.273Z,93.50
2019-05-17T09:23:30.423Z,92.90
2019-05-17T09:25:59.647Z,93.70
2019-05-17T09:28:30.072Z,93.10
2019-05-17T09:31:00.003Z,92.70
2019-05-17T09:33:30.120Z,92.80
2019-05-17T09:36:00.736Z,92.20
2019-05-17T09:38:29.644Z,92.10
2019-05-17T09:41:00.027Z,92.10
2019-05-17T09:43:29.511Z,92.00
2019-05-17T09:46:01.164Z,91.80
2019-05-17T09:48:30.641Z,91.90
2019-05-17T09:51:04.875Z,91.70
2019-05-17T09:53:33.516Z,92.00
2019-05-17T09:56:02.106Z,92.60
2019-05-17T09:58:30.757Z,92.70
2019-05-17T10:01:01.438Z,92.60
2019-05-17T10:03:30.796Z,92.30
2019-05-17T10:06:00.091Z,90.90
2019-05-17T10:08:28.871Z,91.40
2019-05-17T10:11:08.114Z,90.80
2019-05-17T10:13:28.063Z,90.50
2019-05-17T10:15:56.645Z,90.50
2019-05-17T10:18:25.694Z,89.40
2019-05-17T10:20:54.292Z,90.20
2019-05-17T10:23:22.868Z,90.00
2019-05-17T10:25:51.454Z,88.80
2019-05-17T10:28:20.629Z,89.30
2019-05-17T10:30:52.266Z,88.90
2019-05-17T10:33:20.055Z,89.00
2019-05-17T10:35:49.702Z,89.20
2019-05-17T10:38:19.517Z,88.60
2019-05-17T10:40:50.040Z,87.30
2019-05-17T10:43:20.401Z,85.60
2019-05-17T10:45:48.826Z,85.20
2019-05-17T10:48:17.525Z,83.90
2019-05-17T10:50:46.192Z,83.70
2019-05-17T10:53:14.847Z,82.70
2019-05-17T10:55:43.430Z,84.80
2019-05-17T10:58:12.063Z,85.00
2019-05-17T11:00:41.639Z,83.80
2019-05-17T11:03:10.491Z,83.30
2019-05-17T11:05:40.151Z,84.00
2019-05-17T11:08:10.829Z,84.60
2019-05-17T11:10:39.788Z,84.70
2019-05-17T11:13:08.626Z,85.90
2019-05-17T11:15:37.254Z,85.40
2019-05-17T11:18:05.852Z,85.90
2019-05-17T11:20:34.556Z,86.40
2019-05-17T11:23:03.290Z,87.00
2019-05-17T11:25:31.867Z,87.00
2019-05-17T11:28:00.449Z,88.20
2019-05-17T11:30:29.098Z,87.70
2019-05-17T11:32:57.675Z,89.40
2019-05-17T11:35:26.393Z,88.20
2019-05-17T11:37:55.074Z,88.10
2019-05-17T11:40:24.180Z,87.10
2019-05-17T11:42:52.874Z,88.50
2019-05-17T11:45:28.155Z,87.70
2019-05-17T11:47:51.776Z,87.90
2019-05-17T11:50:21.052Z,88.50
2019-05-17T11:52:49.721Z,89.10
2019-05-17T11:55:18.340Z,88.90
2019-05-17T11:57:47.218Z,89.30
2019-05-17T12:00:16.827Z,90.00
2019-05-17T12:02:45.560Z,88.50
2019-05-17T12:05:14.747Z,88.40
2019-05-17T12:07:43.336Z,86.00
2019-05-17T12:10:13.660Z,85.40
2019-05-17T12:12:42.247Z,85.90
2019-05-17T12:15:11.152Z,84.90
2019-05-17T12:17:39.710Z,82.30
2019-05-17T12:20:09.515Z,80.90
2019-05-17T12:22:38.139Z,81.40
2019-05-17T12:25:07.169Z,79.90
2019-05-17T12:27:35.747Z,81.50
2019-05-17T12:30:06.953Z,81.20
2019-05-17T12:32:35.502Z,81.30
2019-05-17T12:35:04.931Z,82.00
2019-05-17T12:37:33.522Z,82.20
2019-05-17T12:40:02.265Z,82.70
2019-05-17T12:42:31.071Z,80.80
2019-05-17T12:44:59.644Z,81.10
2019-05-17T12:47:28.292Z,81.20
2019-05-17T12:49:56.846Z,82.50
2019-05-17T12:52:25.452Z,82.10
2019-05-17T12:54:54.007Z,82.40
2019-05-17T12:57:22.660Z,80.60
2019-05-17T12:59:51.248Z,80.70
2019-05-17T13:02:19.896Z,81.10
2019-05-17T13:04:48.471Z,80.70
2019-05-17T13:07:17.026Z,81.30
2019-05-17T13:09:45.667Z,82.60
2019-05-17T13:12:14.259Z,82.60
2019-05-17T13:14:43.091Z,82.10
2019-05-17T13:17:11.787Z,83.50
2019-05-17T13:19:40.413Z,84.20
2019-05-17T13:22:09.151Z,84.70
2019-05-17T13:24:37.834Z,85.70
2019-05-17T13:27:06.458Z,85.40
2019-05-17T13:29:35.135Z,85.30
2019-05-17T13:32:03.767Z,85.90
2019-05-17T13:34:32.714Z,86.40
2019-05-17T13:37:01.292Z,85.70
2019-05-17T13:39:29.897Z,87.00
2019-05-17T13:41:58.539Z,87.50
2019-05-17T13:44:27.197Z,86.60
2019-05-17T13:46:55.755Z,87.40
2019-05-17T13:49:24.376Z,87.30
2019-05-17T13:51:52.951Z,87.20
2019-05-17T13:54:22.016Z,87.10
2019-05-17T13:56:50.570Z,85.60
2019-05-17T13:59:19.160Z,88.20
2019-05-17T14:01:47.729Z,87.80
2019-05-17T14:04:16.328Z,87.80
2019-05-17T14:06:44.938Z,87.10
2019-05-17T14:09:13.510Z,87.40
2019-05-17T14:11:42.103Z,86.90
2019-05-17T14:14:11.024Z,86.50
2019-05-17T14:16:39.605Z,86.60
2019-05-17T14:19:08.614Z,86.80
2019-05-17T14:21:37.191Z,86.20
2019-05-17T14:24:05.840Z,86.70
2019-05-17T14:26:34.480Z,87.00
2019-05-17T14:29:03.061Z,87.50
2019-05-17T14:31:31.651Z,87.70
2019-05-17T14:34:00.763Z,87.50
2019-05-17T14:36:29.445Z,87.20
2019-05-17T14:38:58.082Z,88.40
2019-05-17T14:41:27.017Z,88.00
2019-05-17T14:43:55.945Z,88.60
2019-05-17T14:46:24.939Z,88.50
2019-05-17T14:48:53.583Z,88.00
2019-05-17T14:51:22.235Z,88.00
2019-05-17T14:53:51.015Z,88.40
2019-05-17T14:56:19.854Z,88.60
2019-05-17T14:58:48.423Z,89.00
2019-05-17T15:01:17.108Z,88.90
2019-05-17T15:03:46.159Z,88.10
2019-05-17T15:06:14.735Z,88.00
2019-05-17T15:08:43.325Z,88.20
2019-05-17T15:11:11.898Z,88.80
2019-05-17T15:13:40.563Z,88.00
2019-05-17T15:16:09.219Z,88.70
2019-05-17T15:18:37.824Z,88.70
2019-05-17T15:21:06.470Z,88.50
2019-05-17T15:23:35.122Z,88.50
2019-05-17T15:26:03.835Z,88.10
2019-05-17T15:28:32.417Z,88.00
2019-05-17T15:31:01.346Z,88.40
2019-05-17T15:33:29.955Z,88.40
2019-05-17T15:35:58.529Z,87.70
2019-05-17T15:38:27.105Z,88.70
2019-05-17T15:40:55.693Z,88.20
2019-05-17T15:43:24.264Z,87.70
2019-05-17T15:45:53.180Z,88.50
2019-05-17T15:48:21.740Z,88.70
2019-05-17T15:50:50.414Z,89.80
2019-05-17T15:53:19.008Z,89.80
2019-05-17T15:55:47.588Z,90.00
2019-05-17T15:58:16.183Z,90.20
2019-05-17T16:00:45.214Z,90.20
2019-05-17T16:03:13.797Z,90.40
2019-05-17T16:05:42.349Z,90.30
2019-05-17T16:08:10.929Z,90.70
2019-05-17T16:10:39.511Z,90.70
2019-05-17T16:13:08.231Z,90.90
2019-05-17T16:15:36.888Z,90.80
2019-05-17T16:18:05.476Z,91.00
2019-05-17T16:20:34.134Z,91.00
2019-05-17T16:23:02.751Z,91.10
2019-05-17T16:25:33.920Z,91.30
2019-05-17T16:28:01.625Z,91.40
2019-05-17T16:30:30.369Z,91.50
2019-05-17T16:32:58.943Z,91.70
2019-05-17T16:35:27.593Z,91.70
2019-05-17T16:37:56.173Z,91.90
2019-05-17T16:40:24.933Z,92.60
2019-05-17T16:42:53.638Z,92.90
2019-05-17T16:45:22.217Z,93.10
2019-05-17T16:47:50.871Z,93.20
2019-05-17T16:50:19.581Z,93.40
2019-05-17T16:52:48.221Z,93.80
2019-05-17T16:55:16.928Z,94.00
2019-05-17T16:57:45.527Z,94.10
2019-05-17T17:00:26.319Z,94.30
2019-05-17T17:02:55.748Z,94.30
2019-05-17T17:05:24.444Z,94.60
2019-05-17T17:07:53.117Z,94.60
2019-05-17T17:10:21.853Z,94.90
2019-05-17T17:12:50.594Z,94.90
2019-05-17T17:15:19.398Z,95.10
2019-05-17T17:17:48.050Z,95.40
2019-05-17T17:20:16.758Z,95.60
2019-05-17T17:22:45.415Z,95.70
2019-05-17T17:25:14.502Z,95.90
2019-05-17T17:27:43.245Z,96.10
2019-05-17T17:30:12.261Z,96.20
2019-05-17T17:32:40.829Z,96.40
2019-05-17T17:35:09.972Z,96.70
2019-05-17T17:37:38.546Z,96.70
2019-05-17T17:40:07.880Z,96.80
2019-05-17T17:42:37.890Z,97.40
2019-05-17T17:45:08.191Z,97.20
2019-05-17T17:47:36.843Z,97.30
2019-05-17T17:50:07.543Z,97.40
2019-05-17T17:52:36.098Z,97.60
2019-05-17T17:55:06.243Z,97.70
2019-05-17T17:57:34.890Z,97.80
2019-05-17T18:00:05.731Z,98.00
2019-05-17T18:02:34.595Z,98.00
2019-05-17T18:05:03.477Z,98.10
2019-05-17T18:07:32.048Z,98.20
2019-05-17T18:10:00.687Z,98.30
2019-05-17T18:12:29.368Z,98.40
2019-05-17T18:14:58.334Z,98.50
2019-05-17T18:17:26.963Z,98.50
2019-05-17T18:19:55.553Z,98.50
2019-05-17T18:22:24.148Z,98.70
2019-05-17T18:24:53.103Z,98.70
2019-05-17T18:27:22.115Z,98.90
2019-05-17T18:29:50.716Z,98.90
2019-05-17T18:32:19.375Z,98.90
2019-05-17T18:34:48.037Z,99.00
2019-05-17T18:37:16.790Z,99.10
2019-05-17T18:39:45.429Z,99.20
2019-05-17T18:42:14.438Z,99.30
2019-05-17T18:44:43.180Z,99.30
2019-05-17T18:47:11.776Z,99.30
2019-05-17T18:49:40.398Z,99.50
2019-05-17T18:52:09.044Z,99.50
2019-05-17T18:54:37.693Z,99.50
2019-05-17T18:57:06.375Z,99.50
2019-05-17T18:59:35.192Z,99.50
2019-05-17T19:02:03.834Z,99.60
2019-05-17T19:04:32.492Z,99.70
2019-05-17T19:07:01.153Z,99.70
2019-05-17T19:09:30.047Z,99.70
2019-05-17T19:11:58.778Z,99.70
2019-05-17T19:14:41.876Z,99.80
2019-05-17T19:16:57.668Z,99.90
2019-05-17T19:19:26.248Z,99.90
2019-05-17T19:21:54.826Z,99.90
2019-05-17T19:24:23.407Z,99.90
2019-05-17T19:26:51.997Z,99.90
2019-05-17T19:29:20.630Z,99.90
2019-05-17T19:31:49.575Z,99.90
2019-05-17T19:34:18.164Z,99.90
2019-05-17T19:36:46.722Z,99.90
2019-05-17T19:39:15.404Z,99.90
2019-05-17T19:41:44.042Z,99.90
2019-05-17T19:44:12.658Z,99.90
2019-05-17T19:46:41.271Z,99.90
2019-05-17T19:49:09.869Z,99.90
2019-05-17T19:51:38.515Z,99.90
2019-05-17T19:54:07.142Z,99.90
2019-05-17T19:56:35.731Z,99.90
2019-05-17T19:59:04.513Z,99.90
2019-05-17T20:01:33.211Z,99.90
2019-05-17T20:04:01.752Z,99.90
2019-05-17T20:06:30.320Z,99.90
2019-05-17T20:08:58.990Z,99.90
2019-05-17T20:11:34.340Z,99.90
2019-05-17T20:13:57.894Z,99.90
2019-05-17T20:16:29.685Z,99.90
2019-05-17T20:18:58.267Z,99.90
2019-05-17T20:21:27.152Z,99.90
2019-05-17T20:23:55.777Z,99.90
2019-05-17T20:26:24.453Z,99.90
2019-05-17T20:28:53.083Z,99.90
2019-05-17T20:31:21.669Z,99.90
2019-05-17T20:33:50.298Z,99.90
2019-05-17T20:36:18.899Z,99.90
2019-05-17T20:38:47.511Z,99.90
2019-05-17T20:41:16.050Z,99.90
2019-05-17T20:43:44.680Z,99.90
2019-05-17T20:46:13.296Z,99.90
2019-05-17T20:48:41.868Z,99.90
2019-05-17T20:51:10.546Z,99.90
2019-05-17T20:53:39.119Z,99.90
2019-05-17T20:56:07.784Z,99.90
2019-05-17T20:58:36.448Z,99.90
2019-05-17T21:01:05.106Z,99.90
2019-05-17T21:03:34.075Z,99.90
2019-05-17T21:06:02.682Z,99.90
2019-05-17T21:08:45.041Z,99.90
2019-05-17T21:11:02.155Z,99.90
2019-05-17T21:13:30.801Z,99.90
2019-05-17T21:15:59.367Z,99.90
2019-05-17T21:18:28.045Z,99.90
2019-05-17T21:20:56.690Z,99.90
2019-05-17T21:23:25.303Z,99.90
2019-05-17T21:25:53.883Z,99.90
2019-05-17T21:28:22.576Z,99.90
2019-05-17T21:30:51.517Z,99.90
2019-05-17T21:33:20.127Z,99.90
2019-05-17T21:35:49.140Z,99.90
2019-05-17T21:38:17.727Z,99.90
2019-05-17T21:40:46.376Z,99.90
2019-05-17T21:43:15.269Z,99.90
2019-05-17T21:45:44.301Z,99.90
2019-05-17T21:48:13.268Z,99.90
2019-05-17T21:50:41.842Z,99.90
2019-05-17T21:53:11.240Z,99.90
2019-05-17T21:55:40.156Z,99.90
2019-05-17T21:58:08.740Z,99.90
2019-05-17T22:00:54.175Z,99.90
2019-05-17T22:03:23.128Z,99.90
2019-05-17T22:05:52.159Z,99.90
2019-05-17T22:08:20.775Z,99.90
2019-05-17T22:10:50.099Z,99.90
2019-05-17T22:13:18.684Z,99.90
2019-05-17T22:15:47.337Z,99.90
2019-05-17T22:18:18.618Z,99.90
2019-05-17T22:20:46.164Z,99.90
2019-05-17T22:23:14.748Z,99.90
2019-05-17T22:25:43.316Z,99.90
2019-05-17T22:28:11.898Z,99.90
2019-05-17T22:30:40.490Z,99.90
2019-05-17T22:33:09.073Z,99.90
2019-05-17T22:35:37.638Z,99.90
2019-05-17T22:38:06.276Z,99.90
2019-05-17T22:40:35.210Z,99.90
2019-05-17T22:43:03.843Z,99.90
2019-05-17T22:45:32.531Z,99.90
2019-05-17T22:48:01.095Z,99.90
2019-05-17T22:50:29.834Z,99.90
2019-05-17T22:52:58.396Z,99.90
2019-05-17T22:55:27.384Z,99.90
2019-05-17T22:57:56.059Z,99.90
2019-05-17T23:00:24.865Z,99.90
2019-05-17T23:02:53.824Z,99.90
2019-05-17T23:05:26.257Z,99.90
2019-05-17T23:07:52.631Z,99.90
2019-05-17T23:10:21.205Z,99.90
2019-05-17T23:12:49.932Z,99.90
2019-05-17T23:15:18.588Z,99.90
2019-05-17T23:17:47.251Z,99.90
2019-05-17T23:20:16.282Z,99.90
2019-05-17T23:22:44.862Z,99.90
2019-05-17T23:25:13.600Z,99.90
2019-05-17T23:27:42.264Z,99.90
2019-05-17T23:30:11.310Z,99.90
2019-05-17T23:32:39.876Z,99.90
2019-05-17T23:35:09.195Z,99.90
2019-05-17T23:37:37.764Z,99.90
2019-05-17T23:40:08.790Z,99.90
2019-05-17T23:42:37.413Z,99.90
2019-05-17T23:45:09.322Z,99.90
2019-05-17T23:47:37.894Z,99.90
2019-05-17T23:50:09.345Z,99.90
2019-05-17T23:52:37.976Z,99.90
2019-05-17T23:55:07.296Z,99.90
2019-05-17T23:57:35.876Z,99.90
